Time;durP1;ratioP1;P1;durP2;ratioP2;P2;SDS_P1;SDS_P2;PMS_P1;PMS_P2;Temp;Humidity;BMP_temperature;BMP_pressure;BME280_temperature;BME280_humidity;BME280_pressure;Samples;Min_cycle;Max_cycle;Signal;HPM_P1;HPM_P2
2022/06/25 00:00:30;;;;;;;16.10;14.63;;;17.40;99.90;;;;;;4790240;29;20065;-69
2022/06/25 00:02:55;;;;;;;15.52;13.93;;;17.30;99.90;;;;;;4799234;29;20062;-68
2022/06/25 00:05:27;;;;;;;15.68;14.27;;;17.30;99.90;;;;;;4795369;29;20054;-69
2022/06/25 00:07:53;;;;;;;16.20;14.70;;;17.30;99.90;;;;;;4787869;29;20061;-69
2022/06/25 00:10:18;;;;;;;15.23;13.93;;;17.20;99.90;;;;;;4787627;29;20055;-70
2022/06/25 00:12:44;;;;;;;15.90;13.73;;;17.30;99.90;;;;;;4789078;29;20078;-70
2022/06/25 00:15:10;;;;;;;14.82;13.43;;;17.20;99.90;;;;;;4791205;29;20050;-68
2022/06/25 00:17:36;;;;;;;14.80;13.30;;;17.20;99.90;;;;;;4788515;29;20535;-67
2022/06/25 00:20:03;;;;;;;13.60;12.40;;;17.10;99.90;;;;;;4787473;29;20051;-69
2022/06/25 00:22:29;;;;;;;12.88;11.77;;;17.10;99.90;;;;;;4805028;29;20055;-68
2022/06/25 00:24:54;;;;;;;13.55;12.35;;;17.10;99.90;;;;;;4791077;29;20084;-69
2022/06/25 00:27:20;;;;;;;13.18;11.93;;;17.10;99.90;;;;;;4793979;29;20044;-68
2022/06/25 00:29:46;;;;;;;12.32;11.13;;;17.10;99.90;;;;;;4772462;30;20128;-69
2022/06/25 00:32:11;;;;;;;11.93;10.93;;;17.00;99.90;;;;;;4799070;29;20079;-70
2022/06/25 00:34:38;;;;;;;12.05;11.00;;;17.00;99.90;;;;;;4789389;29;20055;-68
2022/06/25 00:37:05;;;;;;;11.60;10.60;;;17.00;99.90;;;;;;4765476;30;20054;-69
2022/06/25 00:39:31;;;;;;;11.63;10.63;;;17.00;99.90;;;;;;4795921;29;20057;-68
2022/06/25 00:41:56;;;;;;;11.20;10.20;;;17.00;99.90;;;;;;4790029;29;20130;-68
2022/06/25 00:44:22;;;;;;;11.00;10.00;;;16.90;99.90;;;;;;4788980;29;20104;-69
2022/06/25 00:46:48;;;;;;;10.82;9.93;;;16.90;99.90;;;;;;4806365;29;20066;-67
2022/06/25 00:49:14;;;;;;;11.88;10.88;;;16.90;99.90;;;;;;4789216;29;20389;-69
2022/06/25 00:51:42;;;;;;;11.88;10.75;;;16.90;99.90;;;;;;4790218;29;20097;-68
2022/06/25 00:54:09;;;;;;;11.40;10.25;;;16.90;99.90;;;;;;4804292;29;20046;-68
2022/06/25 00:56:46;;;;;;;10.40;9.50;;;16.90;99.90;;;;;;4790058;29;20078;-70
2022/06/25 00:59:14;;;;;;;11.95;10.85;;;16.80;99.90;;;;;;4804068;29;20138;-68
2022/06/25 01:01:40;;;;;;;12.18;11.07;;;16.80;99.90;;;;;;4805849;29;20051;-69
2022/06/25 01:04:05;;;;;;;12.05;11.05;;;16.80;99.90;;;;;;4801915;29;20127;-70
2022/06/25 01:06:31;;;;;;;11.90;10.90;;;16.80;99.90;;;;;;4803282;29;20063;-69
2022/06/25 01:08:57;;;;;;;11.98;10.98;;;16.80;99.90;;;;;;4790164;29;20071;-68
2022/06/25 01:11:24;;;;;;;14.10;12.82;;;16.90;99.90;;;;;;4789391;29;20070;-69
2022/06/25 01:13:52;;;;;;;12.65;11.55;;;16.80;99.90;;;;;;4789882;29;20061;-69
2022/06/25 01:16:21;;;;;;;12.48;11.23;;;16.70;99.90;;;;;;4804711;29;20081;-68
2022/06/25 01:18:47;;;;;;;13.10;11.95;;;16.70;99.90;;;;;;4789371;29;20480;-68
2022/06/25 01:21:13;;;;;;;14.35;12.98;;;16.60;99.90;;;;;;4787586;29;20054;-69
2022/06/25 01:23:40;;;;;;;13.63;12.38;;;16.70;99.90;;;;;;4774087;30;20365;-70
2022/06/25 01:26:06;;;;;;;12.82;11.65;;;16.70;99.90;;;;;;4787835;29;20239;-68
2022/06/25 01:28:32;;;;;;;13.05;11.95;;;16.60;99.90;;;;;;4784475;29;20054;-70
2022/06/25 01:30:58;;;;;;;12.35;11.30;;;16.70;99.90;;;;;;4787153;29;20165;-69
2022/06/25 01:33:26;;;;;;;12.00;11.00;;;16.60;99.90;;;;;;4800653;29;20077;-68
2022/06/25 01:35:52;;;;;;;13.00;11.70;;;16.60;99.90;;;;;;4802965;29;20042;-70
2022/06/25 01:38:18;;;;;;;12.73;11.52;;;16.60;99.90;;;;;;4788925;29;20067;-70
2022/06/25 01:40:43;;;;;;;11.82;10.82;;;16.50;99.90;;;;;;4776303;29;20054;-70
2022/06/25 01:43:09;;;;;;;12.65;10.90;;;16.50;99.90;;;;;;4771920;30;20058;-69
2022/06/25 01:45:36;;;;;;;12.18;11.18;;;16.50;99.90;;;;;;4782177;29;20115;-70
2022/06/25 01:48:03;;;;;;;13.15;12.02;;;16.50;99.90;;;;;;4803061;29;20054;-68
2022/06/25 01:50:30;;;;;;;12.23;11.23;;;16.50;99.90;;;;;;4789625;29;20090;-69
2022/06/25 01:52:56;;;;;;;12.18;11.10;;;16.50;99.90;;;;;;4804486;29;20058;-68
2022/06/25 01:55:22;;;;;;;11.05;10.05;;;16.50;99.90;;;;;;4773930;29;20442;-69
2022/06/25 01:57:49;;;;;;;12.98;11.60;;;16.50;99.90;;;;;;4805698;29;20065;-69
2022/06/25 02:00:33;;;;;;;12.50;11.32;;;16.40;99.90;;;;;;4787500;29;20054;-69
2022/06/25 02:03:00;;;;;;;11.77;10.68;;;16.40;99.90;;;;;;4785151;29;20054;-69
2022/06/25 02:08:13;;;;;;;11.85;10.85;;;16.40;99.90;;;;;;4804970;29;20158;-69
2022/06/25 02:10:40;;;;;;;12.55;10.80;;;16.30;99.90;;;;;;4788601;29;20065;-69
2022/06/25 02:13:06;;;;;;;11.85;10.68;;;16.30;99.90;;;;;;4789512;29;20396;-70
2022/06/25 02:15:32;;;;;;;11.88;10.68;;;16.30;99.90;;;;;;4788062;29;20059;-68
2022/06/25 02:17:58;;;;;;;11.65;10.43;;;16.30;99.90;;;;;;4804748;29;20055;-68
2022/06/25 02:20:24;;;;;;;11.65;10.55;;;16.20;99.90;;;;;;4787843;29;20392;-69
2022/06/25 02:22:50;;;;;;;11.43;10.43;;;16.20;99.90;;;;;;4789725;29;20058;-68
2022/06/25 02:25:16;;;;;;;12.13;11.07;;;16.20;99.90;;;;;;4800772;29;20055;-69
2022/06/25 02:27:42;;;;;;;12.68;11.48;;;16.20;99.90;;;;;;4807636;29;20054;-69
2022/06/25 02:30:08;;;;;;;12.40;11.07;;;16.20;99.90;;;;;;4808659;29;20046;-70
2022/06/25 02:32:34;;;;;;;12.85;11.65;;;16.20;99.90;;;;;;4789612;29;20381;-68
2022/06/25 02:34:59;;;;;;;11.57;10.57;;;16.20;99.90;;;;;;4790743;29;20073;-69
2022/06/25 02:37:25;;;;;;;13.55;10.77;;;16.20;99.90;;;;;;4791977;29;20055;-69
2022/06/25 02:39:51;;;;;;;13.40;12.15;;;16.10;99.90;;;;;;4807734;29;20051;-70
2022/06/25 02:42:16;;;;;;;12.80;11.70;;;16.10;99.90;;;;;;4789712;29;20105;-69
2022/06/25 02:44:42;;;;;;;14.45;11.70;;;16.10;99.90;;;;;;4791353;29;20061;-69
2022/06/25 02:47:08;;;;;;;12.07;11.00;;;16.00;99.90;;;;;;4792347;29;20086;-69
2022/06/25 02:49:34;;;;;;;13.18;12.07;;;16.00;99.90;;;;;;4807846;29;20122;-70
2022/06/25 02:51:59;;;;;;;12.73;11.63;;;16.00;99.90;;;;;;4792578;29;20122;-68
2022/06/25 02:54:25;;;;;;;13.68;12.35;;;16.00;99.90;;;;;;4791178;29;20548;-69
2022/06/25 02:59:40;;;;;;;12.80;11.80;;;16.00;99.90;;;;;;4805658;29;20055;-70
2022/06/25 03:02:06;;;;;;;12.75;11.65;;;16.00;99.90;;;;;;4788920;29;20047;-69
2022/06/25 03:04:31;;;;;;;14.32;12.93;;;16.00;99.90;;;;;;4792672;29;20082;-69
2022/06/25 03:06:57;;;;;;;13.63;12.52;;;16.00;99.90;;;;;;4776510;29;20557;-70
2022/06/25 03:09:23;;;;;;;13.52;12.15;;;16.00;99.90;;;;;;4807783;29;20063;-69
2022/06/25 03:11:49;;;;;;;14.80;13.50;;;16.00;99.90;;;;;;4804650;29;20066;-68
2022/06/25 03:14:15;;;;;;;14.57;13.18;;;16.00;99.90;;;;;;4774245;30;20117;-70
2022/06/25 03:16:41;;;;;;;14.00;12.60;;;15.90;99.90;;;;;;4790326;29;20074;-70
2022/06/25 03:19:08;;;;;;;14.50;13.10;;;15.90;99.90;;;;;;4807292;29;20051;-68
2022/06/25 03:21:33;;;;;;;14.23;13.02;;;15.90;99.90;;;;;;4805440;29;20046;-70
2022/06/25 03:23:59;;;;;;;13.07;11.88;;;15.90;99.90;;;;;;4791318;29;20059;-69
2022/06/25 03:26:25;;;;;;;13.75;12.48;;;15.90;99.90;;;;;;4806806;29;20053;-69
2022/06/25 03:28:50;;;;;;;11.43;10.50;;;15.90;99.90;;;;;;4804427;29;20117;-70
2022/06/25 03:31:16;;;;;;;15.00;12.48;;;15.90;99.90;;;;;;4788926;29;20430;-70
2022/06/25 03:33:41;;;;;;;16.02;13.25;;;15.90;99.90;;;;;;4807168;29;20101;-69
2022/06/25 03:36:07;;;;;;;12.88;11.60;;;15.90;99.90;;;;;;4807026;29;20055;-70
2022/06/25 03:38:33;;;;;;;13.18;11.98;;;15.90;99.90;;;;;;4806977;29;20055;-70
2022/06/25 03:43:42;;;;;;;15.00;12.98;;;15.90;99.90;;;;;;4803470;29;20050;-69
2022/06/25 03:46:09;;;;;;;13.27;12.00;;;15.90;99.90;;;;;;4791976;29;20087;-68
2022/06/25 03:48:35;;;;;;;11.52;10.52;;;16.00;99.90;;;;;;4788583;29;20050;-70
2022/06/25 03:51:00;;;;;;;12.32;11.23;;;16.00;99.90;;;;;;4759199;29;20055;-70
2022/06/25 03:53:26;;;;;;;13.07;11.80;;;16.00;99.90;;;;;;4773254;30;20485;-68
2022/06/25 03:55:52;;;;;;;12.18;11.07;;;16.00;99.90;;;;;;4789336;29;20047;-68
2022/06/25 03:58:17;;;;;;;11.77;10.65;;;16.00;99.90;;;;;;4788524;29;20057;-70
2022/06/25 04:00:43;;;;;;;11.18;10.27;;;16.00;99.90;;;;;;4788513;29;20188;-69
2022/06/25 04:03:08;;;;;;;12.82;11.63;;;16.00;99.90;;;;;;4804365;29;20069;-69
2022/06/25 04:05:34;;;;;;;12.50;11.35;;;16.00;99.90;;;;;;4773405;30;20386;-70
2022/06/25 04:11:17;;;;;;;12.00;10.70;;;16.10;99.90;;;;;;4806980;29;20058;-68
2022/06/25 04:13:42;;;;;;;11.80;10.63;;;16.10;99.90;;;;;;4803807;29;20054;-69
2022/06/25 04:16:08;;;;;;;9.68;8.88;;;16.10;99.90;;;;;;4791559;29;20046;-67
2022/06/25 04:18:34;;;;;;;10.45;9.48;;;16.20;99.90;;;;;;4789563;29;20160;-70
2022/06/25 04:20:59;;;;;;;11.27;10.27;;;16.20;99.90;;;;;;4807535;29;20055;-68
2022/06/25 04:23:25;;;;;;;12.05;10.80;;;16.30;99.90;;;;;;4789638;29;20099;-70
2022/06/25 04:25:51;;;;;;;11.15;10.07;;;16.30;99.90;;;;;;4806992;29;20058;-70
2022/06/25 04:31:01;;;;;;;11.02;9.80;;;16.40;99.90;;;;;;4771923;29;20055;-69
2022/06/25 04:33:27;;;;;;;12.15;10.43;;;16.40;99.90;;;;;;4785680;29;20059;-69
2022/06/25 04:35:52;;;;;;;10.82;9.82;;;16.50;99.90;;;;;;4788863;29;20055;-69
2022/06/25 04:38:18;;;;;;;9.98;9.10;;;16.50;99.90;;;;;;4787460;29;20095;-70
2022/06/25 04:40:43;;;;;;;11.15;10.15;;;16.50;99.90;;;;;;4787029;29;20118;-70
2022/06/25 04:43:09;;;;;;;12.30;10.05;;;16.60;99.90;;;;;;4785636;29;20149;-68
2022/06/25 04:46:00;;;;;;;10.75;9.38;;;16.60;99.90;;;;;;4786953;29;20059;-68
2022/06/25 04:48:28;;;;;;;10.00;9.10;;;16.60;99.90;;;;;;4785897;30;20081;-71
2022/06/25 04:50:53;;;;;;;9.27;8.52;;;16.70;99.90;;;;;;4787382;29;20522;-69
2022/06/25 04:53:19;;;;;;;10.30;9.40;;;16.70;99.90;;;;;;4784662;29;20046;-68
2022/06/25 04:55:45;;;;;;;9.60;8.80;;;17.00;99.90;;;;;;4783825;29;20115;-69
2022/06/25 04:58:10;;;;;;;9.68;8.25;;;16.80;99.90;;;;;;4786503;29;20069;-70
2022/06/25 05:00:36;;;;;;;6.82;6.30;;;16.90;99.90;;;;;;4784647;30;20104;-69
2022/06/25 05:03:02;;;;;;;10.18;9.15;;;17.00;99.90;;;;;;4784616;29;20051;-68
2022/06/25 05:05:28;;;;;;;9.57;8.73;;;17.00;99.90;;;;;;4777418;30;20067;-68
2022/06/25 05:07:54;;;;;;;8.93;8.13;;;17.20;99.90;;;;;;4772682;29;20528;-70
2022/06/25 05:10:19;;;;;;;9.93;8.38;;;17.20;99.90;;;;;;4780107;29;20051;-70
2022/06/25 05:15:29;;;;;;;8.95;8.05;;;17.30;99.90;;;;;;4782444;30;20051;-71
2022/06/25 05:17:55;;;;;;;8.45;7.72;;;17.30;99.90;;;;;;4786496;29;20051;-71
2022/06/25 05:20:21;;;;;;;9.25;8.55;;;17.40;99.90;;;;;;4781140;30;20133;-70
2022/06/25 05:22:47;;;;;;;9.32;8.43;;;17.50;99.90;;;;;;4792595;29;20130;-69
2022/06/25 05:25:12;;;;;;;8.95;7.97;;;17.60;99.90;;;;;;4786789;30;20112;-69
2022/06/25 05:27:38;;;;;;;8.43;7.63;;;17.70;99.90;;;;;;4786940;30;20059;-69
2022/06/25 05:30:05;;;;;;;8.73;7.93;;;17.80;99.90;;;;;;4779080;29;20094;-71
2022/06/25 05:32:31;;;;;;;8.13;7.35;;;18.30;99.90;;;;;;4771177;29;20046;-68
2022/06/25 05:34:57;;;;;;;8.52;7.72;;;19.30;99.90;;;;;;4779702;29;20408;-70
2022/06/25 05:37:25;;;;;;;7.90;7.20;;;20.50;99.90;;;;;;4779156;29;20138;-70
2022/06/25 05:39:52;;;;;;;7.50;6.82;;;21.60;99.90;;;;;;4786244;29;20055;-70
2022/06/25 05:42:19;;;;;;;8.32;7.13;;;22.40;99.90;;;;;;4785205;29;20194;-70
2022/06/25 05:44:46;;;;;;;6.97;6.38;;;23.00;99.90;;;;;;4795583;29;20582;-69
2022/06/25 05:47:12;;;;;;;7.78;7.07;;;23.70;99.90;;;;;;4779635;29;20059;-71
2022/06/25 05:49:38;;;;;;;6.85;5.95;;;24.00;99.90;;;;;;4783240;29;20126;-70
2022/06/25 05:52:04;;;;;;;6.85;6.18;;;24.30;99.90;;;;;;4784039;29;20104;-70
2022/06/25 05:54:30;;;;;;;6.22;5.65;;;24.50;99.90;;;;;;4783603;29;20047;-69
2022/06/25 05:56:56;;;;;;;6.57;5.80;;;24.70;99.90;;;;;;4781084;29;20055;-71
2022/06/25 05:59:23;;;;;;;5.85;5.25;;;25.10;99.90;;;;;;4784933;29;20051;-70
2022/06/25 06:01:49;;;;;;;8.68;5.25;;;25.50;99.90;;;;;;4784750;29;20598;-70
2022/06/25 06:04:15;;;;;;;5.43;4.60;;;25.70;99.90;;;;;;4782472;29;20055;-69
2022/06/25 06:06:40;;;;;;;5.68;4.90;;;25.70;99.90;;;;;;4787221;29;20385;-69
2022/06/25 06:09:06;;;;;;;5.00;4.47;;;25.80;99.90;;;;;;4772960;30;20126;-70
2022/06/25 06:11:31;;;;;;;5.00;4.50;;;26.00;99.90;;;;;;4780085;30;20137;-71
2022/06/25 06:13:57;;;;;;;5.30;4.13;;;26.00;99.90;;;;;;4777445;30;20052;-71
2022/06/25 06:16:22;;;;;;;4.93;4.50;;;25.90;99.90;;;;;;4772922;30;20051;-70
2022/06/25 06:18:48;;;;;;;4.82;4.18;;;25.70;99.90;;;;;;4771507;30;20089;-71
2022/06/25 06:21:14;;;;;;;6.00;3.97;;;25.70;99.90;;;;;;4783759;29;20508;-70
2022/06/25 06:23:39;;;;;;;4.15;3.78;;;25.80;99.90;;;;;;4789808;30;20134;-70
2022/06/25 06:26:05;;;;;;;5.22;4.03;;;26.10;99.90;;;;;;4783999;30;20054;-71
2022/06/25 06:28:30;;;;;;;3.80;3.50;;;26.20;99.90;;;;;;4781313;29;20062;-72
2022/06/25 06:30:56;;;;;;;4.80;4.20;;;26.20;99.90;;;;;;4805473;29;20051;-71
2022/06/25 06:33:21;;;;;;;4.00;3.40;;;26.30;99.90;;;;;;4802001;29;20128;-72
2022/06/25 06:35:47;;;;;;;3.55;3.20;;;26.20;99.90;;;;;;4780673;30;20389;-72
2022/06/25 06:38:12;;;;;;;4.55;3.30;;;26.40;99.90;;;;;;4771792;30;20051;-71
2022/06/25 06:40:38;;;;;;;3.83;3.30;;;26.60;99.90;;;;;;4771417;30;20043;-70
2022/06/25 06:43:04;;;;;;;4.05;3.20;;;26.50;99.90;;;;;;4775828;30;20048;-72
2022/06/25 06:45:29;;;;;;;4.50;2.95;;;26.00;99.90;;;;;;4782612;30;20053;-71
2022/06/25 06:47:55;;;;;;;4.85;3.00;;;25.10;99.90;;;;;;4790007;29;20063;-70
2022/06/25 06:50:20;;;;;;;3.90;2.95;;;24.40;99.90;;;;;;4789901;30;20051;-71
2022/06/25 06:52:46;;;;;;;2.85;2.58;;;23.90;99.90;;;;;;4790716;29;20477;-71
2022/06/25 06:55:12;;;;;;;4.18;2.90;;;23.50;99.90;;;;;;4789668;30;20186;-71
2022/06/25 06:57:37;;;;;;;5.28;2.97;;;23.20;99.90;;;;;;4773325;30;20062;-72
2022/06/25 07:00:07;;;;;;;4.65;3.00;;;23.10;99.90;;;;;;4780974;29;20052;-72
2022/06/25 07:02:33;;;;;;;5.93;3.33;;;22.80;99.90;;;;;;4774891;29;20068;-73
2022/06/25 07:04:59;;;;;;;5.53;3.40;;;22.70;99.90;;;;;;4780504;30;20047;-71
2022/06/25 07:07:25;;;;;;;5.28;3.47;;;22.60;99.90;;;;;;4778533;30;20050;-73
2022/06/25 07:09:50;;;;;;;4.63;3.33;;;22.40;99.90;;;;;;4794763;29;20130;-70
2022/06/25 07:12:16;;;;;;;4.85;3.28;;;22.40;99.90;;;;;;4774533;30;20116;-70
2022/06/25 07:14:42;;;;;;;4.82;3.22;;;22.40;99.90;;;;;;4788639;30;20501;-70
2022/06/25 07:17:32;;;;;;;4.28;3.15;;;22.40;99.90;;;;;;4789648;29;20055;-71
2022/06/25 07:19:58;;;;;;;4.90;2.95;;;22.40;99.90;;;;;;4790169;30;20052;-72
2022/06/25 07:22:24;;;;;;;4.55;2.83;;;22.50;99.90;;;;;;4783216;29;20104;-72
2022/06/25 07:24:51;;;;;;;4.50;3.20;;;22.50;99.90;;;;;;4780167;30;20135;-70
2022/06/25 07:27:17;;;;;;;4.53;3.03;;;22.70;99.90;;;;;;4790466;29;20059;-70
2022/06/25 07:29:43;;;;;;;5.38;3.30;;;22.70;99.90;;;;;;4771315;30;20113;-70
2022/06/25 07:32:10;;;;;;;4.13;2.95;;;22.80;99.90;;;;;;4771761;30;20051;-71
2022/06/25 07:34:36;;;;;;;5.70;3.28;;;22.80;99.90;;;;;;4785591;29;20166;-69
2022/06/25 07:37:02;;;;;;;4.72;2.72;;;22.90;99.90;;;;;;4773537;30;20108;-69
2022/06/25 07:39:28;;;;;;;4.53;3.00;;;23.10;99.90;;;;;;4791735;29;20397;-69
2022/06/25 07:41:53;;;;;;;5.90;2.83;;;23.00;99.90;;;;;;4781165;29;20062;-71
2022/06/25 07:44:19;;;;;;;4.38;2.75;;;23.10;99.90;;;;;;4783308;29;20080;-71
2022/06/25 07:46:45;;;;;;;5.95;3.05;;;23.40;99.90;;;;;;4806502;29;20483;-69
2022/06/25 07:49:11;;;;;;;3.80;2.80;;;23.30;99.90;;;;;;4791442;29;20055;-71
2022/06/25 07:54:20;;;;;;;5.10;3.08;;;23.40;99.90;;;;;;4807754;29;20486;-71
2022/06/25 07:56:46;;;;;;;4.15;2.80;;;23.50;99.90;;;;;;4805871;29;20090;-70
2022/06/25 07:59:12;;;;;;;4.65;3.13;;;23.60;99.90;;;;;;4800487;29;20078;-70
2022/06/25 08:01:38;;;;;;;4.30;2.70;;;23.60;99.90;;;;;;4804711;29;20129;-70
2022/06/25 08:04:03;;;;;;;4.63;2.58;;;23.70;99.90;;;;;;4788713;29;20203;-69
2022/06/25 08:06:30;;;;;;;3.67;2.47;;;23.60;99.90;;;;;;4790793;29;20050;-70
2022/06/25 08:08:56;;;;;;;5.20;2.20;;;23.80;99.90;;;;;;4767914;29;20061;-70
2022/06/25 08:11:22;;;;;;;3.67;2.40;;;23.70;99.90;;;;;;4798597;29;20054;-70
2022/06/25 08:13:48;;;;;;;3.55;2.50;;;23.70;99.90;;;;;;4781496;29;20433;-71
2022/06/25 08:16:14;;;;;;;4.68;2.75;;;23.60;99.90;;;;;;4791352;29;20059;-70
2022/06/25 08:18:39;;;;;;;3.63;2.30;;;23.60;99.90;;;;;;4806586;29;20059;-70
2022/06/25 08:21:06;;;;;;;3.03;2.60;;;23.50;99.90;;;;;;4790682;29;20054;-72
2022/06/25 08:23:31;;;;;;;5.00;2.10;;;23.70;99.90;;;;;;4806893;29;20089;-71
2022/06/25 08:25:57;;;;;;;3.42;2.15;;;23.70;99.90;;;;;;4790617;29;20441;-70
2022/06/25 08:28:24;;;;;;;3.83;2.15;;;23.90;99.90;;;;;;4786856;29;20047;-70
2022/06/25 08:30:49;;;;;;;3.17;1.83;;;24.10;99.90;;;;;;4773241;30;20055;-72
2022/06/25 08:33:15;;;;;;;3.15;2.10;;;24.20;99.90;;;;;;4788389;29;20051;-69
2022/06/25 08:35:41;;;;;;;2.85;1.70;;;24.30;99.90;;;;;;4783007;29;20039;-70
2022/06/25 08:38:07;;;;;;;2.30;1.60;;;24.20;99.90;;;;;;4781127;29;20055;-70
2022/06/25 08:40:33;;;;;;;2.92;1.60;;;24.00;99.90;;;;;;4788184;29;20058;-69
2022/06/25 08:42:59;;;;;;;2.30;1.70;;;24.10;99.90;;;;;;4806160;29;20397;-69
2022/06/25 08:45:25;;;;;;;5.28;1.80;;;24.10;99.90;;;;;;4804841;29;20549;-70
2022/06/25 08:47:52;;;;;;;3.40;2.22;;;24.10;99.90;;;;;;4798271;29;20389;-70
2022/06/25 08:50:21;;;;;;;2.85;1.80;;;24.20;99.90;;;;;;4796386;29;20054;-70
2022/06/25 08:52:48;;;;;;;4.88;1.80;;;24.20;99.90;;;;;;4793999;29;20233;-70
2022/06/25 08:55:32;;;;;;;2.38;1.95;;;24.30;99.90;;;;;;4796602;29;20397;-69
2022/06/25 08:57:58;;;;;;;3.13;1.90;;;24.20;99.90;;;;;;4779522;29;20066;-70
2022/06/25 09:00:25;;;;;;;5.40;1.83;;;24.30;99.90;;;;;;4773200;30;20481;-69
2022/06/25 09:02:51;;;;;;;3.38;1.58;;;24.50;99.90;;;;;;4771914;30;20062;-69
2022/06/25 09:05:24;;;;;;;3.60;2.05;;;24.60;99.90;;;;;;4772506;30;20439;-70
2022/06/25 09:07:54;;;;;;;2.47;2.10;;;24.70;99.90;;;;;;4772239;29;20055;-68
2022/06/25 09:10:21;;;;;;;2.28;1.80;;;24.50;99.90;;;;;;4772123;30;20059;-70
2022/06/25 09:12:51;;;;;;;10.65;2.45;;;24.50;99.90;;;;;;4772828;29;20126;-70
2022/06/25 09:15:19;;;;;;;4.45;1.95;;;24.50;99.90;;;;;;4775574;29;20530;-69
2022/06/25 09:17:49;;;;;;;2.15;1.85;;;24.50;99.90;;;;;;4778463;29;20129;-70
2022/06/25 09:20:15;;;;;;;2.05;1.67;;;24.50;99.90;;;;;;4797504;29;20046;-69
2022/06/25 09:22:55;;;;;;;3.08;1.85;;;24.80;99.90;;;;;;4780390;29;20050;-70
2022/06/25 09:25:26;;;;;;;2.45;1.90;;;24.90;99.90;;;;;;4795614;29;20047;-68
2022/06/25 09:27:52;;;;;;;3.22;1.65;;;25.00;99.90;;;;;;4778857;29;20057;-71
2022/06/25 09:30:20;;;;;;;2.05;1.48;;;25.20;99.90;;;;;;4797172;29;20062;-69
2022/06/25 09:32:48;;;;;;;1.75;1.52;;;25.30;99.90;;;;;;4778889;29;20046;-70
2022/06/25 09:35:50;;;;;;;3.35;1.50;;;25.10;99.90;;;;;;4775002;30;20134;-69
2022/06/25 09:38:19;;;;;;;3.00;1.80;;;25.00;99.90;;;;;;4787779;29;20055;-69
2022/06/25 09:40:58;;;;;;;3.88;1.60;;;24.90;99.90;;;;;;4773986;29;20046;-70
2022/06/25 09:43:26;;;;;;;3.45;1.80;;;24.90;99.90;;;;;;4796358;29;20221;-69
2022/06/25 09:45:54;;;;;;;3.70;1.60;;;24.90;99.90;;;;;;4782262;29;20047;-69
2022/06/25 09:48:27;;;;;;;3.03;1.77;;;24.90;99.90;;;;;;4787966;29;20083;-70
2022/06/25 09:51:11;;;;;;;2.13;1.65;;;24.90;99.90;;;;;;4786569;29;20058;-70
2022/06/25 09:53:49;;;;;;;3.08;1.45;;;24.90;99.90;;;;;;4796234;29;20069;-70
2022/06/25 09:56:17;;;;;;;2.03;1.50;;;24.90;99.90;;;;;;4794887;29;20055;-69
2022/06/25 09:58:44;;;;;;;2.05;1.58;;;24.90;99.90;;;;;;4787304;29;20051;-69
2022/06/25 10:01:11;;;;;;;1.95;1.38;;;24.90;99.90;;;;;;4771768;30;20086;-69
2022/06/25 10:03:37;;;;;;;2.13;1.20;;;25.00;99.90;;;;;;4770693;30;20051;-71
2022/06/25 10:06:03;;;;;;;1.77;1.23;;;25.10;99.90;;;;;;4795239;29;20043;-70
2022/06/25 10:08:30;;;;;;;3.50;1.60;;;25.20;99.90;;;;;;4771461;30;20098;-69
2022/06/25 10:10:57;;;;;;;3.78;1.60;;;25.40;99.90;;;;;;4771482;30;20059;-69
2022/06/25 10:13:24;;;;;;;2.90;1.20;;;25.50;99.90;;;;;;4797053;29;20210;-71
2022/06/25 10:15:50;;;;;;;3.60;1.50;;;25.60;99.90;;;;;;4789697;29;20105;-70
2022/06/25 10:18:16;;;;;;;2.45;1.10;;;25.50;99.90;;;;;;4785399;29;20513;-69
2022/06/25 10:20:42;;;;;;;7.72;1.40;;;25.50;99.90;;;;;;4788841;29;20049;-69
2022/06/25 10:23:11;;;;;;;2.70;1.45;;;25.20;99.90;;;;;;4799014;29;20050;-70
2022/06/25 10:25:38;;;;;;;2.38;1.40;;;25.00;99.90;;;;;;4781870;30;20059;-70
2022/06/25 10:28:15;;;;;;;3.75;1.73;;;24.90;99.90;;;;;;4794807;29;20532;-70
2022/06/25 10:30:43;;;;;;;3.58;1.65;;;24.70;99.90;;;;;;4789476;29;20050;-69
2022/06/25 10:33:09;;;;;;;2.67;1.40;;;24.70;99.90;;;;;;4792101;29;20059;-70
2022/06/25 10:35:37;;;;;;;2.08;1.35;;;24.90;99.90;;;;;;4779826;29;20533;-70
2022/06/25 10:38:16;;;;;;;3.55;1.27;;;25.10;99.90;;;;;;4789202;29;20055;-70
2022/06/25 10:40:57;;;;;;;3.13;1.15;;;25.30;99.90;;;;;;4779667;29;20078;-70
2022/06/25 10:43:40;;;;;;;2.63;1.08;;;25.30;99.90;;;;;;4796519;29;20070;-70
2022/06/25 10:46:18;;;;;;;1.77;1.15;;;25.20;99.90;;;;;;4785201;29;20051;-70
2022/06/25 10:49:10;;;;;;;1.40;1.00;;;24.90;99.90;;;;;;4797419;29;20114;-70
2022/06/25 10:51:38;;;;;;;2.60;1.15;;;25.20;99.90;;;;;;4781510;29;20485;-69
2022/06/25 10:54:06;;;;;;;4.18;1.25;;;25.00;99.90;;;;;;4783243;29;20090;-71
2022/06/25 10:56:46;;;;;;;3.47;1.38;;;24.90;99.90;;;;;;4783611;29;20068;-69
2022/06/25 10:59:34;;;;;;;2.60;1.30;;;24.90;99.90;;;;;;4800144;29;20086;-69
2022/06/25 11:02:05;;;;;;;2.35;1.30;;;25.10;99.90;;;;;;4782855;29;20183;-71
2022/06/25 11:04:32;;;;;;;3.80;1.52;;;25.40;99.90;;;;;;4776662;29;20540;-69
2022/06/25 11:07:14;;;;;;;3.17;1.48;;;25.70;99.90;;;;;;4789102;29;20392;-69
2022/06/25 11:10:00;;;;;;;2.78;1.10;;;25.70;99.90;;;;;;4790091;29;20082;-69
2022/06/25 11:12:28;;;;;;;2.67;1.25;;;25.90;99.90;;;;;;4790557;29;20055;-69
2022/06/25 11:15:05;;;;;;;2.17;1.17;;;26.00;99.90;;;;;;4787427;30;20039;-69
2022/06/25 11:17:31;;;;;;;3.00;1.20;;;26.00;99.90;;;;;;4773782;30;20059;-69
2022/06/25 11:20:03;;;;;;;2.83;1.02;;;25.80;99.90;;;;;;4774062;29;20063;-69
2022/06/25 11:22:29;;;;;;;1.27;1.13;;;25.80;99.90;;;;;;4807857;29;20069;-69
2022/06/25 11:30:23;;;;;;;2.50;1.17;;;25.60;99.90;;;;;;4790219;30;20385;-69
2022/06/25 11:32:51;;;;;;;4.90;1.30;;;25.50;99.90;;;;;;4798304;29;20055;-70
2022/06/25 11:35:17;;;;;;;1.25;1.00;;;25.50;99.90;;;;;;4792126;29;20107;-70
2022/06/25 11:38:17;;;;;;;2.08;1.33;;;25.60;99.90;;;;;;4791071;29;20477;-69
2022/06/25 11:40:43;;;;;;;2.17;1.20;;;25.40;99.90;;;;;;4807848;29;20112;-69
2022/06/25 11:43:09;;;;;;;4.00;1.40;;;25.30;99.90;;;;;;4800151;29;20485;-70
2022/06/25 11:45:56;;;;;;;2.35;1.48;;;25.20;99.90;;;;;;4773621;30;20063;-73
2022/06/25 11:48:26;;;;;;;4.78;1.65;;;25.10;99.90;;;;;;4789047;30;20374;-68
2022/06/25 11:50:59;;;;;;;1.85;1.17;;;24.90;99.90;;;;;;4789915;29;20127;-68
2022/06/25 11:53:25;;;;;;;1.83;1.27;;;24.70;99.90;;;;;;4773466;30;20334;-69
2022/06/25 11:56:01;;;;;;;2.03;1.10;;;24.50;99.90;;;;;;4789799;29;20047;-69
2022/06/25 11:58:30;;;;;;;2.53;1.25;;;24.40;99.90;;;;;;4783512;29;20122;-67
2022/06/25 12:01:04;;;;;;;2.45;0.90;;;24.30;99.90;;;;;;4791243;29;20055;-69
2022/06/25 12:03:31;;;;;;;4.22;1.30;;;24.20;99.90;;;;;;4790822;29;20099;-68
2022/06/25 12:05:59;;;;;;;2.47;1.48;;;24.10;99.90;;;;;;4807468;29;20063;-68
2022/06/25 12:08:26;;;;;;;2.78;1.27;;;24.10;99.90;;;;;;4801399;29;20056;-68
2022/06/25 12:10:53;;;;;;;2.55;1.20;;;24.00;99.90;;;;;;4781430;29;20058;-70
2022/06/25 12:13:20;;;;;;;2.63;1.30;;;23.90;99.90;;;;;;4802704;29;20061;-69
2022/06/25 12:15:46;;;;;;;2.63;1.50;;;24.00;99.90;;;;;;4807611;29;20063;-70
2022/06/25 12:18:11;;;;;;;2.22;1.52;;;23.90;99.90;;;;;;4805053;29;20060;-69
2022/06/25 12:20:54;;;;;;;2.33;1.45;;;24.00;99.90;;;;;;4807239;29;20106;-69
2022/06/25 12:23:20;;;;;;;2.42;1.70;;;23.80;99.90;;;;;;4805531;29;20057;-69
2022/06/25 12:25:47;;;;;;;3.85;1.60;;;23.80;99.90;;;;;;4781621;29;20418;-68
2022/06/25 12:28:13;;;;;;;2.90;1.70;;;23.60;99.90;;;;;;4775236;30;20130;-69
2022/06/25 12:30:39;;;;;;;2.95;1.80;;;23.70;99.90;;;;;;4779965;29;20118;-69
2022/06/25 12:33:14;;;;;;;3.78;1.92;;;23.50;99.90;;;;;;4797550;29;20066;-68
2022/06/25 12:35:42;;;;;;;2.72;1.88;;;23.50;99.90;;;;;;4775412;30;20137;-68
2022/06/25 12:38:09;;;;;;;3.42;1.60;;;23.50;99.90;;;;;;4773742;30;20055;-68
2022/06/25 12:40:41;;;;;;;3.15;1.63;;;23.40;99.90;;;;;;4772647;30;20051;-69
2022/06/25 12:43:09;;;;;;;1.98;1.52;;;23.30;99.90;;;;;;4790657;29;20059;-69
2022/06/25 12:45:36;;;;;;;2.47;1.80;;;23.20;99.90;;;;;;4788761;29;20048;-69
2022/06/25 12:48:03;;;;;;;1.90;1.65;;;23.10;99.90;;;;;;4796519;29;20434;-68
2022/06/25 12:50:33;;;;;;;2.65;1.80;;;23.00;99.90;;;;;;4790533;29;20104;-68
2022/06/25 12:53:08;;;;;;;4.75;1.55;;;22.90;99.90;;;;;;4797791;29;20062;-68
2022/06/25 12:55:34;;;;;;;3.53;1.73;;;22.80;99.90;;;;;;4780567;29;20128;-69
2022/06/25 12:58:04;;;;;;;2.33;1.50;;;22.80;99.90;;;;;;4799558;29;20097;-69
2022/06/25 13:00:32;;;;;;;1.80;1.70;;;22.70;99.90;;;;;;4777549;30;20380;-68
2022/06/25 13:02:58;;;;;;;2.75;1.75;;;22.70;99.90;;;;;;4787974;30;20058;-69
2022/06/25 13:05:23;;;;;;;3.85;1.70;;;22.60;99.90;;;;;;4795734;29;20051;-69
2022/06/25 13:07:49;;;;;;;6.78;1.98;;;22.70;99.90;;;;;;4778365;29;20073;-69